createdAt,value
2022-11-27T00:01:09.939Z,44.49
2022-11-27T00:03:37.852Z,44.38
2022-11-27T00:06:04.592Z,44.55
2022-11-27T00:08:30.919Z,44.43
2022-11-27T00:10:57.255Z,44.45
2022-11-27T00:13:23.575Z,44.44
2022-11-27T00:15:49.918Z,44.42
2022-11-27T00:18:16.463Z,44.49
2022-11-27T00:20:44.151Z,44.46
2022-11-27T00:23:10.439Z,44.61
2022-11-27T00:25:36.750Z,44.49
2022-11-27T00:28:03.106Z,44.50
2022-11-27T00:30:29.394Z,44.62
2022-11-27T00:32:55.749Z,44.36
2022-11-27T00:35:22.076Z,44.42
2022-11-27T00:37:49.741Z,44.47
2022-11-27T00:40:16.194Z,44.36
2022-11-27T00:42:42.514Z,44.35
2022-11-27T00:45:09.307Z,44.39
2022-11-27T00:47:35.613Z,44.52
2022-11-27T00:50:01.912Z,44.84
2022-11-27T00:52:28.349Z,44.59
2022-11-27T00:54:55.932Z,44.41
2022-11-27T00:57:22.222Z,44.46
2022-11-27T00:59:48.520Z,44.50
2022-11-27T01:02:14.893Z,44.38
2022-11-27T01:04:41.628Z,44.60
2022-11-27T01:07:08.069Z,44.48
2022-11-27T01:09:34.513Z,44.53
2022-11-27T01:12:02.060Z,44.45
2022-11-27T01:14:28.344Z,44.38
2022-11-27T01:16:54.632Z,44.46
2022-11-27T01:19:21.037Z,44.61
2022-11-27T01:21:47.428Z,44.65
2022-11-27T01:24:15.026Z,44.47
2022-11-27T01:26:41.563Z,44.57
2022-11-27T01:29:09.489Z,44.44
2022-11-27T01:31:35.911Z,44.79
2022-11-27T01:34:03.494Z,44.58
2022-11-27T01:36:30.346Z,44.58
2022-11-27T01:38:56.867Z,44.56
2022-11-27T01:41:24.340Z,44.62
2022-11-27T01:43:52.127Z,44.56
2022-11-27T01:46:25.528Z,44.64
2022-11-27T01:48:53.022Z,44.69
2022-11-27T01:51:19.779Z,44.72
2022-11-27T01:53:46.312Z,44.78
2022-11-27T01:56:13.483Z,44.61
2022-11-27T01:58:40.441Z,44.70
2022-11-27T02:01:06.917Z,44.71
2022-11-27T02:03:34.516Z,44.80
2022-11-27T02:06:00.799Z,44.57
2022-11-27T02:08:27.331Z,44.73
2022-11-27T02:10:56.195Z,44.66
2022-11-27T02:13:27.878Z,44.62
2022-11-27T02:15:57.792Z,44.76
2022-11-27T02:18:28.685Z,44.79
2022-11-27T02:21:02.733Z,44.96
2022-11-27T02:23:41.395Z,44.78
2022-11-27T02:26:17.203Z,44.80
2022-11-27T02:28:55.045Z,44.85
2022-11-27T02:31:23.100Z,44.93
2022-11-27T02:33:53.486Z,44.79
2022-11-27T02:36:22.371Z,44.71
2022-11-27T02:38:51.465Z,44.92
2022-11-27T02:41:22.127Z,44.79
2022-11-27T02:43:50.309Z,44.92
2022-11-27T02:46:18.956Z,45.03
2022-11-27T02:48:48.064Z,44.87
2022-11-27T02:51:15.777Z,45.11
2022-11-27T02:53:45.225Z,45.19
2022-11-27T02:56:12.981Z,45.07
2022-11-27T02:58:40.660Z,45.06
2022-11-27T03:01:07.919Z,44.88
2022-11-27T03:03:37.190Z,45.14
2022-11-27T03:06:08.191Z,45.07
2022-11-27T03:08:38.313Z,45.04
2022-11-27T03:11:06.184Z,45.17
2022-11-27T03:13:34.500Z,45.03
2022-11-27T03:16:05.427Z,45.07
2022-11-27T03:18:36.980Z,45.19
2022-11-27T03:21:09.340Z,45.15
2022-11-27T03:23:35.699Z,45.20
2022-11-27T03:26:02.075Z,45.27
2022-11-27T03:28:28.864Z,45.21
2022-11-27T03:30:55.344Z,45.21
2022-11-27T03:33:21.657Z,45.13
2022-11-27T03:35:47.952Z,45.21
2022-11-27T03:38:15.680Z,45.27
2022-11-27T03:40:44.983Z,45.19
2022-11-27T03:43:13.867Z,45.17
2022-11-27T03:45:48.222Z,45.32
2022-11-27T03:48:21.792Z,45.27
2022-11-27T03:50:53.684Z,45.49
2022-11-27T03:53:24.777Z,45.40
2022-11-27T03:55:55.688Z,45.18
2022-11-27T03:58:25.542Z,45.24
2022-11-27T04:00:52.729Z,45.33
2022-11-27T04:03:23.112Z,45.25
2022-11-27T04:05:49.412Z,45.35
2022-11-27T04:08:15.733Z,45.28
2022-11-27T04:10:43.267Z,45.42
2022-11-27T04:13:09.578Z,45.38
2022-11-27T04:15:35.852Z,45.60
2022-11-27T04:18:02.162Z,45.42
2022-11-27T04:20:28.529Z,45.49
2022-11-27T04:22:54.995Z,45.64
2022-11-27T04:25:22.211Z,45.43
2022-11-27T04:27:49.998Z,45.62
2022-11-27T04:30:16.860Z,45.51
2022-11-27T04:32:43.122Z,45.48
2022-11-27T04:35:10.079Z,45.48
2022-11-27T04:37:36.384Z,45.58
2022-11-27T04:40:02.946Z,45.59
2022-11-27T04:42:29.433Z,45.63
2022-11-27T04:44:57.034Z,45.75
2022-11-27T04:47:23.345Z,45.68
2022-11-27T04:49:49.685Z,45.67
2022-11-27T04:52:16.078Z,45.58
2022-11-27T04:54:42.725Z,45.66
2022-11-27T04:57:09.197Z,45.57
2022-11-27T04:59:35.467Z,45.62
2022-11-27T05:02:03.035Z,45.63
2022-11-27T05:04:29.371Z,45.56
2022-11-27T05:06:55.820Z,45.58
2022-11-27T05:09:22.114Z,45.58
2022-11-27T05:11:48.551Z,45.65
2022-11-27T05:14:14.859Z,45.75
2022-11-27T05:16:41.268Z,45.66
2022-11-27T05:19:09.979Z,45.74
2022-11-27T05:21:36.611Z,45.76
2022-11-27T05:24:03.556Z,45.73
2022-11-27T05:26:29.865Z,45.80
2022-11-27T05:28:56.190Z,45.73
2022-11-27T05:31:22.669Z,45.88
2022-11-27T05:33:49.049Z,45.85
2022-11-27T05:36:16.619Z,45.78
2022-11-27T05:38:43.038Z,45.84
2022-11-27T05:41:09.305Z,45.81
2022-11-27T05:43:35.675Z,46.03
2022-11-27T05:46:04.077Z,45.89
2022-11-27T05:48:30.408Z,45.86
2022-11-27T05:50:56.697Z,45.92
2022-11-27T05:53:24.267Z,45.80
2022-11-27T05:55:50.708Z,45.80
2022-11-27T05:58:17.060Z,45.77
2022-11-27T06:00:43.357Z,45.92
2022-11-27T06:03:09.743Z,45.75
2022-11-27T06:05:38.227Z,45.98
2022-11-27T06:08:04.503Z,45.92
2022-11-27T06:10:32.155Z,45.92
2022-11-27T06:12:58.479Z,45.93
2022-11-27T06:15:24.777Z,45.87
2022-11-27T06:17:51.125Z,45.92
2022-11-27T06:20:17.474Z,45.97
2022-11-27T06:22:43.736Z,45.85
2022-11-27T06:25:10.036Z,46.00
2022-11-27T06:27:37.718Z,46.05
2022-11-27T06:30:04.824Z,45.99
2022-11-27T06:32:31.203Z,45.95
2022-11-27T06:34:57.551Z,46.02
2022-11-27T06:37:23.954Z,46.13
2022-11-27T06:39:50.283Z,46.17
2022-11-27T06:42:16.967Z,46.06
2022-11-27T06:44:44.552Z,46.03
2022-11-27T06:47:10.842Z,46.20
2022-11-27T06:49:37.115Z,46.06
2022-11-27T06:52:03.453Z,46.05
2022-11-27T06:54:29.782Z,46.06
2022-11-27T06:56:56.066Z,46.20
2022-11-27T06:59:22.457Z,46.21
2022-11-27T07:01:50.112Z,46.15
2022-11-27T07:04:16.510Z,46.07
2022-11-27T07:06:43.127Z,46.13
2022-11-27T07:09:09.510Z,46.22
2022-11-27T07:11:36.184Z,46.32
2022-11-27T07:14:03.651Z,46.24
2022-11-27T07:16:31.625Z,46.18
2022-11-27T07:19:00.146Z,46.12
2022-11-27T07:21:26.966Z,46.17
2022-11-27T07:23:53.687Z,46.31
2022-11-27T07:26:21.438Z,46.34
2022-11-27T07:28:48.204Z,46.19
2022-11-27T07:31:15.694Z,46.20
2022-11-27T07:33:42.027Z,46.17
2022-11-27T07:36:12.489Z,46.35
2022-11-27T07:38:38.769Z,46.19
2022-11-27T07:41:05.703Z,46.44
2022-11-27T07:43:32.809Z,46.34
2022-11-27T07:46:03.059Z,46.40
2022-11-27T07:48:29.490Z,46.20
2022-11-27T07:50:55.899Z,46.40
2022-11-27T07:53:23.514Z,46.30
2022-11-27T07:55:49.840Z,46.29
2022-11-27T07:58:16.184Z,46.38
2022-11-27T08:00:42.493Z,46.42
2022-11-27T08:03:09.251Z,46.46
2022-11-27T08:05:36.033Z,46.49
2022-11-27T08:08:03.531Z,46.39
2022-11-27T08:10:31.623Z,46.48
2022-11-27T08:12:58.361Z,46.37
2022-11-27T08:15:24.651Z,46.48
2022-11-27T08:17:51.140Z,46.57
2022-11-27T08:20:17.440Z,46.55
2022-11-27T08:22:43.752Z,46.35
2022-11-27T08:25:10.129Z,46.49
2022-11-27T08:27:37.717Z,46.58
2022-11-27T08:30:04.652Z,46.87
2022-11-27T08:32:31.072Z,46.62
2022-11-27T08:34:57.460Z,46.61
2022-11-27T08:37:23.772Z,46.58
2022-11-27T08:39:50.091Z,46.59
2022-11-27T08:42:16.453Z,46.61
2022-11-27T08:44:44.036Z,46.60
2022-11-27T08:47:10.356Z,46.51
2022-11-27T08:49:39.145Z,46.63
2022-11-27T08:52:07.813Z,46.71
2022-11-27T08:54:34.134Z,46.72
2022-11-27T08:57:00.417Z,46.78
2022-11-27T08:59:26.764Z,46.73
2022-11-27T09:01:54.351Z,46.92
2022-11-27T09:04:20.842Z,46.61
2022-11-27T09:06:47.390Z,46.83
2022-11-27T09:09:13.669Z,46.67
2022-11-27T09:11:40.465Z,46.81
2022-11-27T09:14:06.951Z,46.54
2022-11-27T09:16:33.333Z,46.69
2022-11-27T09:19:01.199Z,46.69
2022-11-27T09:21:28.773Z,46.70
2022-11-27T09:23:55.698Z,46.68
2022-11-27T09:26:22.129Z,46.95
2022-11-27T09:28:48.472Z,46.71
2022-11-27T09:31:15.507Z,46.78
2022-11-27T09:33:42.258Z,46.91
2022-11-27T09:36:11.357Z,46.97
2022-11-27T09:38:38.056Z,47.05
2022-11-27T09:41:07.546Z,46.90
2022-11-27T09:43:40.089Z,46.97
2022-11-27T09:46:06.773Z,47.12
2022-11-27T09:48:34.582Z,47.02
2022-11-27T09:51:02.390Z,46.97
2022-11-27T09:53:32.917Z,47.00
2022-11-27T09:56:00.481Z,46.99
2022-11-27T09:58:36.067Z,46.88
2022-11-27T10:01:09.208Z,46.90
2022-11-27T10:03:35.521Z,47.00
2022-11-27T10:06:05.942Z,47.00
2022-11-27T10:08:37.158Z,46.99
2022-11-27T10:11:11.682Z,46.99
2022-11-27T10:13:47.434Z,46.96
2022-11-27T10:16:16.754Z,46.93
2022-11-27T10:18:44.643Z,47.00
2022-11-27T10:21:14.958Z,47.04
2022-11-27T10:23:46.793Z,47.06
2022-11-27T10:26:17.233Z,46.92
2022-11-27T10:28:47.253Z,47.03
2022-11-27T10:31:16.212Z,47.04
2022-11-27T10:33:45.047Z,47.11
2022-11-27T10:36:14.415Z,47.07
2022-11-27T10:38:41.202Z,47.13
2022-11-27T10:41:18.657Z,47.11
2022-11-27T10:44:01.823Z,47.18
2022-11-27T10:46:29.866Z,47.05
2022-11-27T10:48:57.216Z,47.18
2022-11-27T10:51:29.154Z,47.21
2022-11-27T10:53:55.740Z,47.10
2022-11-27T10:56:36.577Z,47.14
2022-11-27T10:59:05.245Z,47.08
2022-11-27T11:01:42.180Z,47.16
2022-11-27T11:04:35.969Z,47.27
2022-11-27T11:06:56.285Z,47.21
2022-11-27T11:09:23.742Z,47.16
2022-11-27T11:11:51.725Z,47.18
2022-11-27T11:14:19.224Z,47.24
2022-11-27T11:16:46.650Z,47.39
2022-11-27T11:19:22.044Z,47.16
2022-11-27T11:21:48.407Z,47.18
2022-11-27T11:24:16.053Z,47.07
2022-11-27T11:26:45.827Z,47.17
2022-11-27T11:29:21.138Z,47.20
2022-11-27T11:31:47.566Z,47.33
2022-11-27T11:34:19.254Z,47.16
2022-11-27T11:36:53.754Z,47.38
2022-11-27T11:39:22.916Z,47.42
2022-11-27T11:41:49.298Z,47.18
2022-11-27T11:44:20.002Z,47.31
2022-11-27T11:46:52.205Z,47.50
2022-11-27T11:49:22.986Z,47.24
2022-11-27T11:51:57.341Z,47.28
2022-11-27T11:54:31.420Z,47.33
2022-11-27T11:57:00.220Z,47.36
2022-11-27T11:59:30.547Z,47.36
2022-11-27T12:02:16.439Z,47.25
2022-11-27T12:04:53.439Z,47.50
2022-11-27T12:07:27.440Z,47.49
2022-11-27T12:09:57.145Z,47.45
2022-11-27T12:12:29.424Z,47.38
2022-11-27T12:14:59.549Z,47.37
2022-11-27T12:17:34.569Z,47.52
2022-11-27T12:20:05.374Z,47.48
2022-11-27T12:22:39.418Z,47.36
2022-11-27T12:25:17.417Z,47.51
2022-11-27T12:27:50.184Z,47.31
2022-11-27T12:30:17.862Z,47.45
2022-11-27T12:32:53.827Z,47.50
2022-11-27T12:35:29.229Z,47.66
2022-11-27T12:37:59.260Z,47.62
2022-11-27T12:40:32.299Z,47.46
2022-11-27T12:43:03.271Z,47.58
2022-11-27T12:45:33.327Z,47.52
2022-11-27T12:48:02.864Z,47.51
2022-11-27T12:50:32.908Z,47.47
2022-11-27T12:53:02.699Z,47.50
2022-11-27T12:55:30.591Z,47.59
2022-11-27T12:58:00.199Z,47.55
2022-11-27T13:00:27.358Z,47.43
2022-11-27T13:03:00.432Z,47.58
2022-11-27T13:05:30.270Z,47.60
2022-11-27T13:07:58.637Z,47.67
2022-11-27T13:10:31.146Z,47.50
2022-11-27T13:13:01.892Z,47.60
2022-11-27T13:15:32.602Z,47.57
2022-11-27T13:18:04.433Z,47.58
2022-11-27T13:20:34.834Z,47.73
2022-11-27T13:23:01.158Z,47.51
2022-11-27T13:25:29.005Z,47.48
2022-11-27T13:27:55.904Z,47.81
2022-11-27T13:30:23.568Z,47.79
2022-11-27T13:32:52.264Z,47.74
2022-11-27T13:35:20.206Z,47.75
2022-11-27T13:37:49.715Z,47.82
2022-11-27T13:40:18.601Z,47.67
2022-11-27T13:42:46.431Z,47.67
2022-11-27T13:45:19.479Z,47.70
2022-11-27T13:47:46.616Z,47.69
2022-11-27T13:50:14.330Z,47.58
2022-11-27T13:52:51.893Z,47.88
2022-11-27T13:55:23.831Z,47.79
2022-11-27T13:57:51.866Z,47.74
2022-11-27T14:00:18.570Z,47.75
2022-11-27T14:02:45.817Z,47.85
2022-11-27T14:05:13.416Z,47.82
2022-11-27T14:07:41.427Z,47.92
2022-11-27T14:10:13.490Z,47.90
2022-11-27T14:12:40.996Z,47.85
2022-11-27T14:15:08.711Z,47.88
2022-11-27T14:17:36.623Z,47.87
2022-11-27T14:20:05.724Z,47.84
2022-11-27T14:23:06.998Z,47.79
2022-11-27T14:25:29.653Z,48.04
2022-11-27T14:27:58.671Z,48.16
2022-11-27T14:30:27.713Z,47.90
2022-11-27T14:32:54.091Z,48.01
2022-11-27T14:35:21.629Z,48.00
2022-11-27T14:37:47.959Z,47.87
2022-11-27T14:40:14.905Z,47.90
2022-11-27T14:42:42.478Z,48.03
2022-11-27T14:45:12.484Z,48.05
2022-11-27T14:47:39.178Z,48.03
2022-11-27T14:50:06.145Z,48.15
2022-11-27T14:52:32.704Z,48.17
2022-11-27T14:55:00.294Z,48.16
2022-11-27T14:57:27.418Z,48.09
2022-11-27T15:00:04.916Z,48.24
2022-11-27T15:02:31.476Z,48.24
2022-11-27T15:05:01.928Z,48.21
2022-11-27T15:07:30.106Z,48.25
2022-11-27T15:09:57.415Z,48.19
2022-11-27T15:12:26.137Z,48.17
2022-11-27T15:14:55.796Z,48.25
2022-11-27T15:17:25.916Z,48.11
2022-11-27T15:19:52.955Z,48.45
2022-11-27T15:22:19.525Z,48.23
2022-11-27T15:24:45.829Z,48.32
2022-11-27T15:27:17.218Z,48.39
2022-11-27T15:29:45.949Z,48.29
2022-11-27T15:32:21.819Z,48.26
2022-11-27T15:34:51.145Z,48.28
2022-11-27T15:37:21.470Z,48.21
2022-11-27T15:39:48.951Z,48.41
2022-11-27T15:42:15.259Z,48.17
2022-11-27T15:44:41.888Z,48.33
2022-11-27T15:47:19.374Z,48.58
2022-11-27T15:49:45.650Z,48.42
2022-11-27T15:52:13.230Z,48.35
2022-11-27T15:54:39.818Z,48.36
2022-11-27T15:57:06.274Z,48.26
2022-11-27T15:59:32.683Z,48.24
2022-11-27T16:01:59.052Z,48.37
2022-11-27T16:04:25.359Z,48.28
2022-11-27T16:06:51.767Z,48.37
2022-11-27T16:09:21.297Z,48.37
2022-11-27T16:11:47.682Z,48.62
2022-11-27T16:14:13.960Z,48.33
2022-11-27T16:16:40.552Z,48.39
2022-11-27T16:19:06.998Z,48.28
2022-11-27T16:21:34.180Z,48.43
2022-11-27T16:24:01.732Z,48.37
2022-11-27T16:26:29.881Z,48.44
2022-11-27T16:28:56.328Z,48.37
2022-11-27T16:31:23.417Z,48.34
2022-11-27T16:33:49.852Z,48.29
2022-11-27T16:36:17.623Z,48.29
2022-11-27T16:38:44.627Z,48.42
2022-11-27T16:41:14.084Z,48.20
2022-11-27T16:43:42.819Z,48.31
2022-11-27T16:46:10.325Z,48.32
2022-11-27T16:48:37.590Z,48.42
2022-11-27T16:51:04.504Z,48.26
2022-11-27T16:53:30.899Z,48.39
2022-11-27T16:55:57.191Z,48.36
2022-11-27T16:58:23.523Z,48.33
2022-11-27T17:00:51.222Z,48.51
2022-11-27T17:03:17.702Z,48.42
2022-11-27T17:05:48.763Z,48.43
2022-11-27T17:08:17.562Z,48.43
2022-11-27T17:10:44.020Z,48.26
2022-11-27T17:13:10.300Z,48.45
2022-11-27T17:15:40.581Z,48.49
2022-11-27T17:18:08.508Z,48.43
2022-11-27T17:20:34.827Z,48.53
2022-11-27T17:23:01.267Z,48.48
2022-11-27T17:25:29.183Z,48.35
2022-11-27T17:27:55.466Z,48.33
2022-11-27T17:30:21.885Z,48.42
2022-11-27T17:32:48.175Z,48.24
2022-11-27T17:35:15.792Z,48.01
2022-11-27T17:37:42.220Z,48.37
2022-11-27T17:40:08.766Z,48.37
2022-11-27T17:42:35.229Z,48.49
2022-11-27T17:45:01.562Z,48.54
2022-11-27T17:47:27.846Z,48.39
2022-11-27T17:49:54.180Z,48.43
2022-11-27T17:52:21.738Z,48.28
2022-11-27T17:54:48.046Z,48.36
2022-11-27T17:57:14.397Z,48.25
2022-11-27T17:59:40.982Z,48.48
2022-11-27T18:02:07.477Z,48.51
2022-11-27T18:04:33.841Z,48.54
2022-11-27T18:07:00.130Z,48.41
2022-11-27T18:09:27.798Z,48.41
2022-11-27T18:11:54.104Z,48.42
2022-11-27T18:14:20.502Z,48.39
2022-11-27T18:16:46.896Z,48.46
2022-11-27T18:19:13.309Z,48.50
2022-11-27T18:21:39.656Z,48.50
2022-11-27T18:24:24.104Z,48.37
2022-11-27T18:27:07.675Z,48.47
2022-11-27T18:29:35.233Z,48.20
2022-11-27T18:32:01.659Z,48.30
2022-11-27T18:34:28.048Z,48.30
2022-11-27T18:36:54.405Z,48.36
2022-11-27T18:39:20.712Z,48.48
2022-11-27T18:41:47.157Z,48.48
2022-11-27T18:44:14.764Z,48.54
2022-11-27T18:46:41.179Z,48.48
2022-11-27T18:49:07.505Z,48.38
2022-11-27T18:51:33.775Z,48.49
2022-11-27T18:54:00.102Z,48.32
2022-11-27T18:56:27.618Z,48.42
2022-11-27T18:58:54.271Z,48.37
2022-11-27T19:01:23.696Z,48.50
2022-11-27T19:03:50.249Z,48.40
2022-11-27T19:06:17.355Z,48.30
2022-11-27T19:08:43.685Z,48.28
2022-11-27T19:11:11.228Z,48.34
2022-11-27T19:13:38.034Z,48.33
2022-11-27T19:16:05.575Z,48.27
2022-11-27T19:18:33.634Z,48.55
2022-11-27T19:20:59.996Z,48.37
2022-11-27T19:23:26.309Z,48.42
2022-11-27T19:25:52.605Z,48.46
2022-11-27T19:28:18.992Z,48.42
2022-11-27T19:30:45.318Z,48.54
2022-11-27T19:33:11.733Z,48.28
2022-11-27T19:35:39.336Z,48.33
2022-11-27T19:38:05.675Z,48.29
2022-11-27T19:40:32.345Z,48.29
2022-11-27T19:43:01.208Z,48.38
2022-11-27T19:45:28.002Z,48.30
2022-11-27T19:47:54.332Z,48.42
2022-11-27T19:50:20.805Z,48.36
2022-11-27T19:52:48.425Z,48.32
2022-11-27T19:55:14.724Z,48.44
2022-11-27T19:57:41.080Z,48.54
2022-11-27T20:00:07.838Z,48.29
2022-11-27T20:02:34.967Z,48.43
2022-11-27T20:05:01.332Z,48.27
2022-11-27T20:07:27.684Z,48.35
2022-11-27T20:09:55.458Z,48.43
2022-11-27T20:12:21.783Z,48.34
2022-11-27T20:14:48.092Z,48.32
2022-11-27T20:17:14.505Z,48.30
2022-11-27T20:19:41.221Z,48.35
2022-11-27T20:22:07.772Z,48.42
2022-11-27T20:24:34.116Z,48.47
2022-11-27T20:27:01.828Z,48.40
2022-11-27T20:29:28.256Z,48.36
2022-11-27T20:31:54.575Z,48.39
2022-11-27T20:34:21.703Z,48.37
2022-11-27T20:36:48.627Z,48.29
2022-11-27T20:39:19.428Z,48.35
2022-11-27T20:41:47.439Z,48.47
2022-11-27T20:44:15.018Z,48.38
2022-11-27T20:46:41.327Z,48.43
2022-11-27T20:49:07.737Z,48.34
2022-11-27T20:51:34.275Z,48.40
2022-11-27T20:54:01.605Z,48.44
2022-11-27T20:56:28.674Z,48.22
2022-11-27T20:58:55.116Z,48.34
2022-11-27T21:01:24.473Z,48.34
2022-11-27T21:03:51.510Z,48.30
2022-11-27T21:06:18.766Z,48.42
2022-11-27T21:08:45.342Z,48.26
2022-11-27T21:11:12.341Z,48.26
2022-11-27T21:13:38.683Z,48.40
2022-11-27T21:16:06.984Z,48.42
2022-11-27T21:18:34.772Z,48.42
2022-11-27T21:21:04.502Z,48.53
2022-11-27T21:23:30.773Z,48.23
2022-11-27T21:25:57.193Z,48.15
2022-11-27T21:28:23.481Z,48.19
2022-11-27T21:30:49.765Z,48.24
2022-11-27T21:33:16.048Z,48.24
2022-11-27T21:35:43.616Z,48.29
2022-11-27T21:38:09.919Z,48.22
2022-11-27T21:40:36.328Z,48.24
2022-11-27T21:43:02.684Z,48.26
2022-11-27T21:45:29.083Z,48.27
2022-11-27T21:47:55.402Z,48.42
2022-11-27T21:50:21.796Z,48.29
2022-11-27T21:52:51.897Z,48.38
2022-11-27T21:55:18.230Z,48.33
2022-11-27T21:57:44.631Z,48.43
2022-11-27T22:00:11.134Z,48.41
2022-11-27T22:02:37.532Z,48.28
2022-11-27T22:05:04.045Z,48.20
2022-11-27T22:07:30.377Z,48.34
2022-11-27T22:09:58.019Z,48.27
2022-11-27T22:12:24.333Z,48.41
2022-11-27T22:14:50.671Z,48.26
2022-11-27T22:17:17.110Z,48.18
2022-11-27T22:19:43.528Z,48.20
2022-11-27T22:22:09.941Z,48.19
2022-11-27T22:24:36.284Z,48.18
2022-11-27T22:27:03.898Z,48.16
2022-11-27T22:29:30.317Z,48.12
2022-11-27T22:31:56.656Z,48.21
2022-11-27T22:34:22.989Z,48.26
2022-11-27T22:36:49.324Z,48.12
2022-11-27T22:39:15.843Z,48.22
2022-11-27T22:41:42.180Z,48.24
2022-11-27T22:44:11.343Z,48.11
2022-11-27T22:46:39.460Z,48.14
2022-11-27T22:49:06.103Z,48.09
2022-11-27T22:51:33.331Z,48.05
2022-11-27T22:54:00.699Z,48.03
2022-11-27T22:56:27.252Z,48.18
2022-11-27T22:59:11.269Z,48.14
2022-11-27T23:01:41.245Z,48.14
2022-11-27T23:04:07.576Z,48.09
2022-11-27T23:06:33.878Z,47.97
2022-11-27T23:09:00.189Z,48.12
2022-11-27T23:11:27.139Z,48.12
2022-11-27T23:13:54.482Z,48.14
2022-11-27T23:16:21.756Z,48.00
2022-11-27T23:18:49.436Z,48.05
2022-11-27T23:21:16.455Z,48.02
2022-11-27T23:23:43.094Z,47.93
2022-11-27T23:26:14.749Z,47.87
2022-11-27T23:28:44.023Z,48.03
2022-11-27T23:31:28.843Z,48.10
2022-11-27T23:33:57.908Z,47.83
2022-11-27T23:36:24.323Z,48.06
2022-11-27T23:38:50.596Z,48.06
2022-11-27T23:41:18.220Z,48.11
2022-11-27T23:43:44.631Z,47.72
2022-11-27T23:46:12.303Z,47.88
2022-11-27T23:48:38.662Z,47.83
2022-11-27T23:51:09.907Z,47.81
2022-11-27T23:53:36.687Z,47.76
2022-11-27T23:56:03.265Z,47.69
2022-11-27T23:58:29.654Z,47.78
